Time;durP1;ratioP1;P1;durP2;ratioP2;P2;SDS_P1;SDS_P2;PMS_P1;PMS_P2;Temp;Humidity;BMP_temperature;BMP_pressure;BME280_temperature;BME280_humidity;BME280_pressure;Samples;Min_cycle;Max_cycle;Signal;HPM_P1;HPM_P2
2023/04/26 00:00:08;;;;;;;2.40;1.90;;;22.80;58.10;;;;;;5020603;28;20545;-76
2023/04/26 00:02:37;;;;;;;2.17;1.97;;;22.90;58.00;;;;;;5040098;28;20954;-76
2023/04/26 00:05:07;;;;;;;2.10;1.90;;;22.90;58.00;;;;;;5027771;28;20877;-75
2023/04/26 00:07:37;;;;;;;1.73;1.70;;;22.80;58.00;;;;;;5028878;28;20812;-75
2023/04/26 00:10:08;;;;;;;2.27;2.00;;;22.80;58.00;;;;;;5031467;28;20433;-75
2023/04/26 00:12:37;;;;;;;2.07;1.87;;;22.80;58.00;;;;;;5028886;28;20472;-75
2023/04/26 00:15:06;;;;;;;3.33;1.97;;;22.80;58.00;;;;;;5018853;28;20582;-75
2023/04/26 00:17:35;;;;;;;1.90;1.80;;;22.80;57.90;;;;;;5028578;28;20619;-75
2023/04/26 00:20:07;;;;;;;1.83;1.73;;;22.80;57.90;;;;;;5027731;28;20469;-74
2023/04/26 00:22:35;;;;;;;2.20;2.00;;;22.80;57.90;;;;;;5024495;28;20501;-75
2023/04/26 00:25:04;;;;;;;1.90;1.80;;;22.80;57.90;;;;;;5031051;28;20538;-75
2023/04/26 00:27:33;;;;;;;2.30;2.20;;;22.80;57.80;;;;;;5029578;28;20440;-75
2023/04/26 00:30:01;;;;;;;2.17;2.07;;;22.80;57.80;;;;;;5030292;28;20455;-75
2023/04/26 00:32:31;;;;;;;2.20;2.00;;;22.80;57.80;;;;;;5021135;28;20484;-75
2023/04/26 00:34:59;;;;;;;2.03;1.93;;;22.80;57.80;;;;;;5030598;28;20466;-75
2023/04/26 00:37:27;;;;;;;1.90;1.80;;;22.80;57.80;;;;;;5023652;28;20566;-75
2023/04/26 00:39:56;;;;;;;2.43;2.23;;;22.80;57.80;;;;;;5030433;28;20475;-75
2023/04/26 00:42:24;;;;;;;2.00;1.90;;;22.80;57.80;;;;;;5031581;28;20438;-75
2023/04/26 00:44:56;;;;;;;2.00;1.90;;;22.70;57.80;;;;;;5018242;28;20558;-75
2023/04/26 00:47:25;;;;;;;2.10;2.00;;;22.70;57.70;;;;;;5045903;28;20461;-75
2023/04/26 00:49:54;;;;;;;2.13;1.97;;;22.70;57.70;;;;;;5014483;28;20530;-75
2023/04/26 00:52:22;;;;;;;2.40;2.20;;;22.70;57.70;;;;;;5012583;28;21053;-76
2023/04/26 00:54:50;;;;;;;2.13;2.03;;;22.70;57.70;;;;;;5020893;28;20566;-75
2023/04/26 00:57:19;;;;;;;2.20;2.10;;;22.70;57.70;;;;;;5023231;28;20502;-75
2023/04/26 00:59:47;;;;;;;2.00;1.90;;;22.70;57.60;;;;;;5011450;28;20460;-75
2023/04/26 01:02:18;;;;;;;2.10;2.00;;;22.70;57.70;;;;;;5011844;28;20448;-75
2023/04/26 01:04:47;;;;;;;2.10;2.00;;;22.70;57.70;;;;;;5027357;28;20455;-76
2023/04/26 01:07:15;;;;;;;1.80;1.70;;;22.70;57.60;;;;;;5019914;28;20471;-76
2023/04/26 01:09:44;;;;;;;2.27;2.17;;;22.70;57.60;;;;;;5012962;28;20938;-75
2023/04/26 01:12:13;;;;;;;2.23;2.10;;;22.70;57.60;;;;;;5013355;28;21117;-75
2023/04/26 01:14:42;;;;;;;2.20;2.00;;;22.70;57.60;;;;;;5015974;28;20469;-75
2023/04/26 01:17:10;;;;;;;2.00;1.90;;;22.70;57.60;;;;;;5014086;28;20565;-75
2023/04/26 01:19:48;;;;;;;2.90;2.17;;;22.70;57.60;;;;;;5019428;28;20475;-75
2023/04/26 01:22:16;;;;;;;2.63;2.03;;;22.70;57.60;;;;;;5030059;28;20450;-76
2023/04/26 01:24:50;;;;;;;2.03;1.93;;;22.60;57.60;;;;;;5031448;28;20879;-76
2023/04/26 01:27:18;;;;;;;1.90;1.80;;;22.60;57.60;;;;;;5031150;28;20431;-76
2023/04/26 01:29:47;;;;;;;3.90;2.10;;;22.60;57.60;;;;;;5026360;28;20552;-76
2023/04/26 01:32:16;;;;;;;2.17;2.07;;;22.60;57.60;;;;;;5017258;28;20536;-75
2023/04/26 01:34:44;;;;;;;2.13;2.03;;;22.60;57.60;;;;;;5020431;28;20887;-75
2023/04/26 01:37:12;;;;;;;1.87;1.77;;;22.60;57.70;;;;;;5029732;28;21258;-75
2023/04/26 01:39:40;;;;;;;2.10;2.00;;;22.60;57.70;;;;;;5012711;28;20877;-75
2023/04/26 01:42:10;;;;;;;2.90;2.07;;;22.60;57.70;;;;;;5030757;28;20521;-76
2023/04/26 01:44:38;;;;;;;1.93;1.83;;;22.60;57.70;;;;;;5030630;28;20473;-75
2023/04/26 01:47:06;;;;;;;2.13;2.03;;;22.60;57.70;;;;;;5030950;28;20474;-75
2023/04/26 01:49:35;;;;;;;1.97;1.87;;;22.60;57.70;;;;;;5029152;28;20454;-75
2023/04/26 01:52:03;;;;;;;2.00;1.90;;;22.60;57.60;;;;;;5030304;28;20458;-75
2023/04/26 01:54:32;;;;;;;1.90;1.80;;;22.60;57.60;;;;;;5010522;28;20563;-75
2023/04/26 01:57:01;;;;;;;2.30;2.10;;;22.60;57.60;;;;;;5018447;28;20550;-75
2023/04/26 01:59:31;;;;;;;2.30;2.20;;;22.50;57.60;;;;;;5012277;28;20463;-75
2023/04/26 02:01:59;;;;;;;2.40;2.30;;;22.50;57.60;;;;;;5030427;28;20493;-75
2023/04/26 02:04:28;;;;;;;2.77;2.30;;;22.50;57.60;;;;;;5019297;28;20514;-75
2023/04/26 02:06:56;;;;;;;2.57;2.20;;;22.50;57.60;;;;;;5029715;28;20447;-76
2023/04/26 02:09:24;;;;;;;2.20;2.10;;;22.50;57.60;;;;;;5029970;28;20487;-75
2023/04/26 02:11:52;;;;;;;2.00;1.90;;;22.50;57.60;;;;;;5009858;28;20467;-75
2023/04/26 02:14:20;;;;;;;2.10;1.90;;;22.50;57.60;;;;;;5029275;28;20518;-75
2023/04/26 02:16:51;;;;;;;2.20;2.10;;;22.50;57.60;;;;;;5015189;28;20447;-75
2023/04/26 02:19:19;;;;;;;2.60;1.80;;;22.50;57.60;;;;;;5033395;28;20466;-75
2023/04/26 02:21:52;;;;;;;1.90;1.80;;;22.50;57.60;;;;;;5002004;28;20514;-75
2023/04/26 02:24:21;;;;;;;2.07;1.97;;;22.50;57.60;;;;;;5003292;28;20460;-75
2023/04/26 02:26:49;;;;;;;1.90;1.80;;;22.50;57.50;;;;;;5007181;28;20960;-75
2023/04/26 02:29:17;;;;;;;1.90;1.80;;;22.50;57.50;;;;;;5041769;28;20502;-75
2023/04/26 02:31:50;;;;;;;2.83;2.60;;;22.50;57.50;;;;;;5033738;28;20978;-75
2023/04/26 02:34:18;;;;;;;2.40;2.20;;;22.50;57.50;;;;;;5026522;28;20900;-75
2023/04/26 02:36:47;;;;;;;2.27;2.07;;;22.40;57.50;;;;;;5004280;28;20461;-76
2023/04/26 02:39:15;;;;;;;1.90;1.80;;;22.40;57.50;;;;;;5013348;28;20534;-75
2023/04/26 02:41:43;;;;;;;2.07;1.97;;;22.40;57.50;;;;;;5014445;28;20510;-75
2023/04/26 02:44:12;;;;;;;2.33;2.13;;;22.40;57.50;;;;;;5016207;28;20478;-75
2023/04/26 02:46:40;;;;;;;1.90;1.80;;;22.40;57.40;;;;;;5015454;28;20517;-75
2023/04/26 02:49:10;;;;;;;2.10;2.00;;;22.40;57.40;;;;;;5032957;28;20469;-75
2023/04/26 02:51:38;;;;;;;2.00;1.90;;;22.40;57.40;;;;;;5014741;28;20508;-75
2023/04/26 02:54:06;;;;;;;1.77;1.67;;;22.40;57.40;;;;;;5016123;28;20467;-74
2023/04/26 02:56:35;;;;;;;2.47;2.33;;;22.40;57.40;;;;;;5014779;28;20639;-75
2023/04/26 02:59:03;;;;;;;2.40;2.30;;;22.40;57.40;;;;;;5033128;28;20562;-76
2023/04/26 03:01:31;;;;;;;2.17;1.97;;;22.40;57.40;;;;;;5014788;28;20826;-75
2023/04/26 03:04:00;;;;;;;1.50;1.50;;;22.40;57.40;;;;;;5010698;28;20460;-75
2023/04/26 03:06:30;;;;;;;2.20;2.10;;;22.40;57.40;;;;;;5012980;28;20470;-75
2023/04/26 03:08:58;;;;;;;1.70;1.60;;;22.40;57.30;;;;;;5014569;28;20464;-75
2023/04/26 03:11:27;;;;;;;2.03;1.90;;;22.40;57.30;;;;;;5014371;28;20792;-75
2023/04/26 03:13:55;;;;;;;1.93;1.83;;;22.30;57.30;;;;;;5015862;28;20478;-75
2023/04/26 03:16:23;;;;;;;2.47;2.27;;;22.30;57.30;;;;;;5002447;28;20468;-75
2023/04/26 03:18:52;;;;;;;2.17;2.07;;;22.30;57.30;;;;;;5008264;28;20649;-75
2023/04/26 03:21:21;;;;;;;1.57;1.47;;;22.30;57.30;;;;;;5014938;28;21005;-75
2023/04/26 03:23:51;;;;;;;1.80;1.70;;;22.30;57.30;;;;;;5033161;28;20447;-75
2023/04/26 03:26:21;;;;;;;1.80;1.70;;;22.30;57.30;;;;;;5014569;28;20463;-75
2023/04/26 03:28:49;;;;;;;2.00;1.90;;;22.30;57.30;;;;;;5008161;28;20831;-75
2023/04/26 03:31:18;;;;;;;1.80;1.70;;;22.30;57.30;;;;;;5013253;28;20487;-75
2023/04/26 03:33:46;;;;;;;1.80;1.70;;;22.30;57.20;;;;;;5011569;28;20479;-75
2023/04/26 03:36:14;;;;;;;2.13;1.90;;;22.30;57.20;;;;;;5027292;28;20485;-75
2023/04/26 03:38:43;;;;;;;2.17;2.00;;;22.30;57.20;;;;;;5013761;28;20494;-75
2023/04/26 03:41:13;;;;;;;2.10;2.00;;;22.30;57.20;;;;;;5014883;28;20555;-76
2023/04/26 03:43:41;;;;;;;2.23;2.13;;;22.20;57.20;;;;;;5032977;28;20481;-75
2023/04/26 03:46:09;;;;;;;1.67;1.57;;;22.20;57.20;;;;;;5029647;28;20463;-75
2023/04/26 03:48:38;;;;;;;1.70;1.60;;;22.20;57.20;;;;;;5031789;28;21290;-75
2023/04/26 03:51:06;;;;;;;1.90;1.80;;;22.30;57.30;;;;;;5014847;28;20543;-75
2023/04/26 03:53:34;;;;;;;1.87;1.77;;;22.30;57.40;;;;;;5031572;28;20467;-76
2023/04/26 03:56:03;;;;;;;1.47;1.37;;;22.30;57.40;;;;;;5019440;28;20508;-76
2023/04/26 03:58:35;;;;;;;1.90;1.80;;;22.30;57.40;;;;;;5009944;28;20474;-76
2023/04/26 04:01:03;;;;;;;1.80;1.67;;;22.30;57.40;;;;;;5003322;28;20546;-77
2023/04/26 04:03:31;;;;;;;1.70;1.60;;;22.40;57.40;;;;;;5042274;28;20463;-76
2023/04/26 04:06:00;;;;;;;1.60;1.50;;;22.40;57.40;;;;;;5023404;28;20844;-76
2023/04/26 04:08:29;;;;;;;1.20;1.20;;;22.40;57.40;;;;;;5012129;28;20499;-76
2023/04/26 04:10:57;;;;;;;1.60;1.50;;;22.50;57.40;;;;;;5031735;28;20448;-77
2023/04/26 04:13:26;;;;;;;1.60;1.50;;;22.50;57.40;;;;;;5011816;28;20470;-76
2023/04/26 04:15:55;;;;;;;1.73;1.40;;;22.50;57.40;;;;;;5023479;28;20575;-77
2023/04/26 04:18:23;;;;;;;1.37;1.27;;;22.50;57.30;;;;;;5040758;28;20468;-76
2023/04/26 04:20:52;;;;;;;1.87;1.77;;;22.50;57.20;;;;;;5044891;28;20486;-76
2023/04/26 04:23:20;;;;;;;1.50;1.40;;;22.60;57.20;;;;;;5016531;28;20505;-75
2023/04/26 04:25:50;;;;;;;1.93;1.70;;;22.60;57.00;;;;;;5000273;28;21011;-76
2023/04/26 04:28:18;;;;;;;1.90;1.80;;;22.60;56.90;;;;;;4998678;28;20475;-76
2023/04/26 04:30:46;;;;;;;1.67;1.57;;;22.60;56.90;;;;;;5013802;28;20460;-75
2023/04/26 04:33:16;;;;;;;1.80;1.70;;;22.60;56.80;;;;;;5031829;28;20522;-76
2023/04/26 04:35:45;;;;;;;1.87;1.77;;;22.70;56.80;;;;;;5006541;28;20493;-76
2023/04/26 04:38:13;;;;;;;1.77;1.67;;;22.60;56.70;;;;;;5019299;28;20509;-75
2023/04/26 04:40:42;;;;;;;3.13;2.93;;;22.60;56.70;;;;;;5012895;28;20448;-78
2023/04/26 04:43:11;;;;;;;1.90;1.70;;;22.60;56.70;;;;;;5010746;28;20951;-74
2023/04/26 04:45:40;;;;;;;1.53;1.43;;;22.60;56.70;;;;;;5012115;28;20470;-74
2023/04/26 04:48:08;;;;;;;2.00;1.80;;;22.60;56.80;;;;;;5008501;28;21163;-74
2023/04/26 04:50:38;;;;;;;2.27;2.03;;;22.60;56.80;;;;;;5001447;28;20456;-75
2023/04/26 04:53:07;;;;;;;2.00;1.90;;;22.60;56.80;;;;;;5007301;28;20537;-74
2023/04/26 04:55:36;;;;;;;1.53;1.43;;;22.60;56.70;;;;;;5014862;28;20483;-75
2023/04/26 04:58:05;;;;;;;1.60;1.50;;;22.50;56.80;;;;;;5009952;28;20508;-74
2023/04/26 05:00:34;;;;;;;1.60;1.50;;;22.50;56.80;;;;;;5012661;28;20460;-75
2023/04/26 05:03:10;;;;;;;1.47;1.30;;;22.50;56.90;;;;;;5007064;28;20547;-75
2023/04/26 05:05:40;;;;;;;5.57;1.93;;;22.50;57.00;;;;;;5004393;28;20465;-75
2023/04/26 05:08:08;;;;;;;1.97;1.73;;;22.50;57.10;;;;;;5013147;28;20463;-76
2023/04/26 05:10:36;;;;;;;1.50;1.40;;;22.50;57.30;;;;;;5028758;28;20443;-76
2023/04/26 05:13:06;;;;;;;3.80;1.57;;;22.50;57.40;;;;;;5009670;28;20460;-76
2023/04/26 05:15:34;;;;;;;2.33;1.90;;;22.50;57.50;;;;;;5030810;28;20483;-76
2023/04/26 05:18:03;;;;;;;1.97;1.83;;;22.50;57.60;;;;;;5009119;28;20518;-77
2023/04/26 05:20:31;;;;;;;1.77;1.67;;;22.50;57.60;;;;;;5028568;28;20991;-77
2023/04/26 05:23:01;;;;;;;3.70;1.60;;;22.40;57.70;;;;;;5007881;28;20551;-77
2023/04/26 05:25:29;;;;;;;2.37;1.93;;;22.40;57.70;;;;;;5030821;28;20539;-76
2023/04/26 05:28:11;;;;;;;1.80;1.70;;;22.40;57.70;;;;;;5006636;28;20554;-76
2023/04/26 05:30:51;;;;;;;3.57;1.90;;;22.40;57.80;;;;;;5008635;28;20462;-76
2023/04/26 05:33:26;;;;;;;1.73;1.63;;;22.40;57.80;;;;;;5015955;28;20517;-76
2023/04/26 05:35:57;;;;;;;1.97;1.77;;;22.50;57.90;;;;;;5024833;28;20578;-77
2023/04/26 05:38:27;;;;;;;1.47;1.37;;;22.40;57.90;;;;;;5028594;28;20523;-76
2023/04/26 05:40:55;;;;;;;1.83;1.60;;;22.50;57.90;;;;;;5009811;28;20488;-76
2023/04/26 05:43:23;;;;;;;1.70;1.60;;;22.50;57.90;;;;;;5010384;28;21007;-76
2023/04/26 05:45:52;;;;;;;2.33;1.47;;;22.50;57.90;;;;;;5005690;28;21051;-77
2023/04/26 05:48:21;;;;;;;1.93;1.50;;;22.50;57.80;;;;;;5008899;28;20468;-76
2023/04/26 05:50:50;;;;;;;2.20;1.70;;;22.60;57.80;;;;;;5016001;28;20470;-76
2023/04/26 05:53:19;;;;;;;1.70;1.60;;;22.60;57.80;;;;;;5013315;28;20460;-76
2023/04/26 05:55:49;;;;;;;1.80;1.70;;;22.60;57.70;;;;;;5031791;28;20564;-76
2023/04/26 05:58:17;;;;;;;3.00;2.07;;;22.60;57.70;;;;;;5010248;28;20486;-76
2023/04/26 06:00:46;;;;;;;2.50;1.90;;;22.60;57.60;;;;;;5014889;28;20613;-76
2023/04/26 06:03:14;;;;;;;2.57;2.20;;;22.60;57.60;;;;;;5012294;28;20474;-76
2023/04/26 06:05:43;;;;;;;2.23;2.13;;;22.60;57.50;;;;;;5025834;28;20999;-76
2023/04/26 06:08:12;;;;;;;2.73;2.53;;;22.60;57.50;;;;;;5014281;28;20469;-76
2023/04/26 06:10:40;;;;;;;2.00;1.87;;;22.60;57.40;;;;;;5018047;28;20498;-76
2023/04/26 06:13:09;;;;;;;3.20;1.67;;;22.60;57.40;;;;;;5036940;28;20851;-76
2023/04/26 06:15:38;;;;;;;1.60;1.50;;;22.70;57.30;;;;;;5015948;28;20571;-76
2023/04/26 06:18:06;;;;;;;2.40;1.80;;;22.70;57.20;;;;;;5033099;28;20458;-76
2023/04/26 06:20:34;;;;;;;2.20;2.10;;;22.70;57.10;;;;;;5021809;28;20818;-76
2023/04/26 06:23:06;;;;;;;3.20;2.10;;;22.70;57.10;;;;;;5018337;28;20471;-76
2023/04/26 06:25:35;;;;;;;2.30;2.03;;;22.70;57.00;;;;;;5021715;28;20471;-76
2023/04/26 06:28:04;;;;;;;2.33;2.03;;;22.70;57.00;;;;;;5030377;28;20563;-76
2023/04/26 06:30:34;;;;;;;2.00;1.90;;;22.70;57.00;;;;;;5015703;28;20848;-76
2023/04/26 06:33:03;;;;;;;2.27;2.07;;;22.70;57.00;;;;;;5013569;28;20501;-76
2023/04/26 06:35:33;;;;;;;2.23;1.70;;;22.60;57.00;;;;;;5014724;28;20481;-76
2023/04/26 06:38:02;;;;;;;1.90;1.80;;;22.60;56.90;;;;;;5014840;28;20530;-76
2023/04/26 06:40:30;;;;;;;6.50;2.30;;;22.60;56.90;;;;;;5027771;28;20447;-76
2023/04/26 06:42:58;;;;;;;2.07;1.90;;;22.60;56.90;;;;;;5015159;28;20550;-76
2023/04/26 06:46:00;;;;;;;1.60;1.50;;;22.60;56.90;;;;;;5026307;28;20465;-76
2023/04/26 06:48:28;;;;;;;4.23;2.20;;;22.60;56.90;;;;;;5038515;28;20467;-76
2023/04/26 06:50:56;;;;;;;2.53;2.30;;;22.70;56.90;;;;;;5033080;28;20936;-76
2023/04/26 06:53:24;;;;;;;1.97;1.87;;;22.70;56.90;;;;;;5029177;28;20464;-76
2023/04/26 06:55:56;;;;;;;1.90;1.50;;;22.70;56.90;;;;;;5030529;28;20476;-76
2023/04/26 06:58:24;;;;;;;2.50;1.87;;;22.70;56.90;;;;;;5033934;28;20460;-76
2023/04/26 07:00:52;;;;;;;2.40;1.70;;;22.70;56.90;;;;;;5029557;28;20521;-76
2023/04/26 07:03:22;;;;;;;2.17;1.67;;;22.70;56.90;;;;;;5014703;28;20825;-76
2023/04/26 07:05:50;;;;;;;1.80;1.70;;;22.70;56.90;;;;;;5019815;28;20523;-76
2023/04/26 07:08:19;;;;;;;2.60;1.53;;;22.70;56.80;;;;;;5031461;28;20448;-76
2023/04/26 07:10:47;;;;;;;2.70;1.97;;;22.80;56.80;;;;;;5019965;28;20558;-76
2023/04/26 07:13:15;;;;;;;1.87;1.77;;;22.80;56.70;;;;;;5022714;28;20543;-77
2023/04/26 07:15:44;;;;;;;2.10;2.00;;;22.80;56.70;;;;;;5029655;28;20479;-74
2023/04/26 07:18:12;;;;;;;2.70;2.23;;;22.80;56.80;;;;;;5030761;28;20459;-74
2023/04/26 07:20:42;;;;;;;2.50;2.27;;;22.80;57.60;;;;;;5032482;28;20455;-72
2023/04/26 07:23:10;;;;;;;3.33;2.27;;;22.90;57.80;;;;;;5031836;28;20807;-77
2023/04/26 07:25:38;;;;;;;4.80;2.33;;;22.90;57.90;;;;;;5004336;28;20460;-74
2023/04/26 07:28:07;;;;;;;3.40;2.53;;;22.90;58.20;;;;;;5029746;28;20985;-78
2023/04/26 07:30:35;;;;;;;3.20;2.40;;;22.90;58.20;;;;;;5022971;28;20456;-78
2023/04/26 07:33:03;;;;;;;2.80;2.20;;;23.00;58.20;;;;;;5031524;28;20459;-79
2023/04/26 07:35:34;;;;;;;4.70;2.30;;;23.00;58.10;;;;;;5032059;28;20487;-79
2023/04/26 07:38:03;;;;;;;2.60;2.00;;;23.00;58.00;;;;;;5031675;28;20516;-79
2023/04/26 07:40:32;;;;;;;2.60;2.40;;;23.00;58.00;;;;;;5028663;28;20810;-77
2023/04/26 07:43:00;;;;;;;6.33;2.13;;;23.00;58.00;;;;;;5030156;28;20907;-76
2023/04/26 07:45:28;;;;;;;3.47;2.97;;;23.10;58.00;;;;;;5021142;28;20471;-77
2023/04/26 07:47:57;;;;;;;2.80;2.50;;;23.10;57.80;;;;;;5027005;28;20569;-79
2023/04/26 07:50:25;;;;;;;2.80;2.40;;;23.10;57.70;;;;;;5032172;28;20551;-78
2023/04/26 07:52:53;;;;;;;4.80;2.70;;;23.10;57.60;;;;;;5030633;28;20972;-77
2023/04/26 07:55:23;;;;;;;3.00;2.53;;;23.10;57.50;;;;;;5029426;28;20465;-77
2023/04/26 07:57:51;;;;;;;7.20;2.63;;;23.10;57.50;;;;;;5031564;28;20586;-79
2023/04/26 08:00:22;;;;;;;4.57;2.40;;;23.10;57.40;;;;;;5030206;28;20506;-76
2023/04/26 08:02:50;;;;;;;4.47;2.37;;;23.20;57.30;;;;;;5029501;28;20491;-77
2023/04/26 08:05:19;;;;;;;3.27;2.77;;;23.20;57.30;;;;;;5031480;28;20444;-76
2023/04/26 08:07:47;;;;;;;2.90;2.40;;;23.20;57.20;;;;;;5017775;28;20462;-75
2023/04/26 08:10:15;;;;;;;2.17;2.07;;;23.20;57.20;;;;;;5032420;28;20511;-78
2023/04/26 08:12:45;;;;;;;4.30;2.50;;;23.20;57.20;;;;;;5028099;28;20464;-75
2023/04/26 08:15:13;;;;;;;1.90;1.80;;;23.30;57.20;;;;;;5030120;28;20475;-77
2023/04/26 08:17:42;;;;;;;2.57;2.37;;;23.30;57.10;;;;;;5028388;28;20482;-77
2023/04/26 08:20:11;;;;;;;3.30;2.20;;;23.30;57.00;;;;;;5027391;28;20531;-79
2023/04/26 08:22:39;;;;;;;2.43;2.07;;;23.30;56.90;;;;;;5031109;28;20535;-79
2023/04/26 08:25:08;;;;;;;3.73;2.00;;;23.40;56.80;;;;;;5031508;28;20449;-74
2023/04/26 08:27:36;;;;;;;2.30;2.20;;;23.40;56.80;;;;;;5030557;28;20950;-76
2023/04/26 08:30:07;;;;;;;2.90;1.77;;;23.40;56.70;;;;;;5031583;28;20975;-76
2023/04/26 08:32:35;;;;;;;4.60;2.10;;;23.50;56.70;;;;;;5031111;28;20450;-77
2023/04/26 08:35:04;;;;;;;3.67;2.50;;;23.50;56.60;;;;;;5020836;28;20575;-74
2023/04/26 08:37:32;;;;;;;2.37;2.00;;;23.50;56.50;;;;;;5030471;28;20499;-77
2023/04/26 08:40:01;;;;;;;2.87;2.03;;;23.50;56.50;;;;;;5030698;28;20940;-77
2023/04/26 08:42:30;;;;;;;1.80;1.70;;;23.50;56.40;;;;;;5029753;28;20467;-78
2023/04/26 08:45:02;;;;;;;3.40;2.10;;;23.60;56.40;;;;;;5029029;28;20460;-77
2023/04/26 08:47:42;;;;;;;2.43;2.23;;;23.60;56.40;;;;;;5031260;28;20453;-77
2023/04/26 08:50:13;;;;;;;2.80;1.93;;;23.60;56.30;;;;;;5021635;28;20992;-77
2023/04/26 08:52:43;;;;;;;3.10;1.90;;;23.60;56.30;;;;;;5030024;28;20778;-76
2023/04/26 08:55:13;;;;;;;2.33;2.13;;;23.60;56.20;;;;;;5026626;28;20458;-77
2023/04/26 08:57:43;;;;;;;3.70;2.37;;;23.60;56.20;;;;;;5027523;28;21053;-77
2023/04/26 09:00:14;;;;;;;2.27;2.13;;;23.60;56.20;;;;;;5025123;28;20502;-76
2023/04/26 09:02:47;;;;;;;2.70;2.50;;;23.60;56.10;;;;;;5029995;28;20469;-77
2023/04/26 09:05:15;;;;;;;2.50;2.30;;;23.60;56.10;;;;;;5030627;28;20880;-76
2023/04/26 09:07:45;;;;;;;3.80;2.63;;;23.60;56.10;;;;;;5025981;28;21214;-76
2023/04/26 09:10:18;;;;;;;2.37;2.00;;;23.60;56.00;;;;;;5026346;28;20489;-78
2023/04/26 09:12:46;;;;;;;1.70;1.60;;;23.60;56.10;;;;;;5030496;28;20490;-77
2023/04/26 09:15:15;;;;;;;4.10;2.43;;;23.60;56.00;;;;;;5031224;28;20799;-79
2023/04/26 09:17:45;;;;;;;2.23;2.07;;;23.60;56.00;;;;;;5030420;28;20472;-74
2023/04/26 09:20:22;;;;;;;3.10;2.40;;;23.60;56.00;;;;;;5017401;28;20799;-75
2023/04/26 09:22:51;;;;;;;4.20;2.23;;;23.60;55.90;;;;;;5030627;28;20540;-80
2023/04/26 09:25:28;;;;;;;2.50;2.10;;;23.60;55.80;;;;;;5030272;28;20480;-80
2023/04/26 09:27:57;;;;;;;2.57;2.37;;;23.60;56.10;;;;;;5023773;28;20540;-80
2023/04/26 09:30:26;;;;;;;1.90;1.80;;;23.60;56.20;;;;;;5023876;28;20541;-79
2023/04/26 09:32:58;;;;;;;3.40;2.40;;;23.60;56.30;;;;;;5021124;28;20559;-81
2023/04/26 09:35:29;;;;;;;2.40;2.20;;;23.60;56.40;;;;;;5031151;28;20512;-80
2023/04/26 09:37:59;;;;;;;2.43;1.50;;;23.70;56.40;;;;;;5012700;28;20568;-81
2023/04/26 09:40:39;;;;;;;2.27;2.07;;;23.70;56.40;;;;;;5030803;28;20445;-79
2023/04/26 09:43:10;;;;;;;1.83;1.73;;;23.80;56.40;;;;;;5030148;28;20461;-80
2023/04/26 09:45:48;;;;;;;3.37;2.23;;;23.80;56.40;;;;;;5022985;28;20461;-79
2023/04/26 09:48:21;;;;;;;2.10;2.00;;;23.80;56.40;;;;;;5036308;28;20460;-80
2023/04/26 09:50:52;;;;;;;6.03;2.00;;;23.80;56.40;;;;;;5005373;28;20478;-79
2023/04/26 09:53:29;;;;;;;1.93;1.83;;;23.80;56.40;;;;;;5030624;28;20491;-80
2023/04/26 09:56:05;;;;;;;3.50;1.73;;;23.80;56.50;;;;;;5030770;28;20550;-78
2023/04/26 09:58:34;;;;;;;3.20;1.80;;;23.80;56.40;;;;;;5028713;28;20562;-79
2023/04/26 10:01:04;;;;;;;2.10;2.00;;;23.80;56.40;;;;;;5025868;28;20894;-81
2023/04/26 10:03:34;;;;;;;2.60;1.70;;;23.80;56.40;;;;;;5030009;28;20553;-81
2023/04/26 10:06:03;;;;;;;2.73;1.70;;;23.80;56.50;;;;;;5031214;28;20534;-81
2023/04/26 10:08:32;;;;;;;4.67;2.50;;;23.90;56.60;;;;;;5031336;28;20453;-86
2023/04/26 10:11:04;;;;;;;3.50;2.20;;;23.90;56.60;;;;;;5030998;28;20501;-85
2023/04/26 10:13:32;;;;;;;1.80;1.70;;;23.90;56.60;;;;;;5024171;28;20455;-76
2023/04/26 10:16:01;;;;;;;4.13;1.87;;;23.90;56.50;;;;;;5027114;28;20910;-76
2023/04/26 10:18:30;;;;;;;3.10;2.70;;;23.90;56.00;;;;;;5026267;28;20518;-76
2023/04/26 10:21:04;;;;;;;3.20;2.00;;;23.80;55.80;;;;;;5029051;28;20883;-76
2023/04/26 10:23:33;;;;;;;2.30;2.10;;;23.80;55.80;;;;;;5028720;28;20490;-76
2023/04/26 10:26:02;;;;;;;2.60;1.97;;;23.80;55.70;;;;;;5026956;28;20531;-77
2023/04/26 10:28:55;;;;;;;2.00;1.90;;;23.80;55.70;;;;;;5017500;28;20485;-76
2023/04/26 10:32:02;;;;;;;2.10;2.00;;;23.80;55.80;;;;;;5021287;28;20469;-76
2023/04/26 10:34:32;;;;;;;1.77;1.67;;;23.70;55.70;;;;;;5023647;28;20503;-77
2023/04/26 10:37:09;;;;;;;2.50;2.30;;;23.70;55.80;;;;;;5023585;28;20459;-76
2023/04/26 10:39:38;;;;;;;2.80;2.50;;;23.70;55.90;;;;;;5022808;28;20508;-76
2023/04/26 10:42:23;;;;;;;2.13;2.00;;;23.70;55.90;;;;;;5026111;28;20468;-76
2023/04/26 10:44:53;;;;;;;2.20;2.10;;;23.70;56.00;;;;;;5028261;28;20464;-77
2023/04/26 10:47:23;;;;;;;2.20;2.10;;;23.60;56.10;;;;;;5028233;28;20460;-77
2023/04/26 10:49:52;;;;;;;1.90;1.80;;;23.60;56.10;;;;;;5023214;28;20452;-76
2023/04/26 10:52:21;;;;;;;3.20;1.80;;;23.60;56.00;;;;;;5030471;28;20467;-76
2023/04/26 10:54:53;;;;;;;1.63;1.53;;;23.60;56.00;;;;;;5030695;28;20540;-76
2023/04/26 10:57:22;;;;;;;2.20;1.87;;;23.60;56.00;;;;;;5031760;28;20495;-76
2023/04/26 11:00:28;;;;;;;1.67;1.57;;;23.60;55.90;;;;;;5031813;28;20572;-76
2023/04/26 11:03:07;;;;;;;2.80;1.87;;;23.60;55.90;;;;;;5036629;28;20488;-78
2023/04/26 11:05:54;;;;;;;1.93;1.83;;;23.60;55.90;;;;;;5031858;28;20455;-77
2023/04/26 11:08:28;;;;;;;2.60;2.07;;;23.70;55.90;;;;;;5033083;28;20452;-77
2023/04/26 11:11:04;;;;;;;2.20;2.00;;;23.70;55.90;;;;;;5034479;28;20459;-76
2023/04/26 11:13:33;;;;;;;3.03;2.30;;;23.70;55.80;;;;;;5036555;28;20459;-77
2023/04/26 11:16:04;;;;;;;4.10;2.40;;;23.80;55.90;;;;;;5025034;28;20449;-77
2023/04/26 11:18:33;;;;;;;3.10;2.30;;;23.80;55.90;;;;;;5035102;28;20465;-77
2023/04/26 11:21:02;;;;;;;2.43;2.23;;;23.80;55.90;;;;;;5040447;28;20792;-77
2023/04/26 11:23:32;;;;;;;2.40;2.20;;;23.80;55.90;;;;;;5033452;28;20950;-77
2023/04/26 11:26:02;;;;;;;6.10;2.23;;;23.80;55.90;;;;;;5010702;28;20877;-77
2023/04/26 11:28:31;;;;;;;2.60;2.27;;;23.80;56.00;;;;;;5030024;28;20465;-79
2023/04/26 11:31:02;;;;;;;2.70;2.20;;;23.80;56.00;;;;;;5028604;28;20488;-78
2023/04/26 11:33:32;;;;;;;2.40;2.20;;;23.80;56.20;;;;;;5029840;28;20466;-77
2023/04/26 11:36:01;;;;;;;4.23;2.10;;;23.80;56.30;;;;;;5029853;28;20458;-77
2023/04/26 11:38:31;;;;;;;3.40;2.40;;;23.80;56.40;;;;;;5030128;28;21128;-79
2023/04/26 11:41:01;;;;;;;3.20;2.13;;;23.70;56.50;;;;;;5027580;28;20464;-79
2023/04/26 11:43:34;;;;;;;2.30;2.10;;;23.70;56.50;;;;;;5029678;28;20450;-77
2023/04/26 11:46:03;;;;;;;3.67;2.40;;;23.70;56.60;;;;;;5030649;28;20443;-77
2023/04/26 11:48:33;;;;;;;4.80;2.60;;;23.80;56.60;;;;;;5022205;28;20454;-77
2023/04/26 11:51:03;;;;;;;4.03;2.37;;;23.80;56.50;;;;;;5031359;28;20460;-76
2023/04/26 11:53:37;;;;;;;4.33;2.47;;;23.80;56.50;;;;;;5007369;28;20818;-77
2023/04/26 11:56:15;;;;;;;2.40;2.13;;;23.80;56.60;;;;;;5029929;28;20447;-76
2023/04/26 11:58:45;;;;;;;2.33;2.20;;;23.90;56.60;;;;;;5029433;28;20544;-76
2023/04/26 12:01:20;;;;;;;2.90;2.10;;;24.00;56.50;;;;;;5028225;28;20450;-77
2023/04/26 12:03:51;;;;;;;6.00;2.83;;;24.10;56.40;;;;;;5034902;28;20457;-77
2023/04/26 12:06:20;;;;;;;3.70;2.37;;;24.10;56.30;;;;;;5008517;28;20489;-77
2023/04/26 12:08:53;;;;;;;2.13;2.03;;;24.10;56.40;;;;;;5021902;28;20451;-76
2023/04/26 12:11:21;;;;;;;2.97;2.70;;;24.20;56.40;;;;;;5016613;28;21019;-77
2023/04/26 12:13:49;;;;;;;3.90;1.80;;;24.30;56.30;;;;;;5025578;28;21017;-78
2023/04/26 12:16:17;;;;;;;2.47;2.17;;;24.40;56.20;;;;;;5035555;28;20955;-76
2023/04/26 12:18:55;;;;;;;3.20;2.67;;;24.50;56.00;;;;;;5028226;28;21022;-77
2023/04/26 12:21:26;;;;;;;2.27;2.07;;;24.60;55.90;;;;;;5021093;28;20482;-77
2023/04/26 12:23:59;;;;;;;2.43;2.23;;;24.60;55.90;;;;;;5020216;28;20451;-77
2023/04/26 12:26:44;;;;;;;2.30;2.10;;;24.60;55.90;;;;;;5031370;28;20476;-79
2023/04/26 12:29:12;;;;;;;4.00;2.23;;;24.70;56.00;;;;;;5030739;28;20483;-79
2023/04/26 12:31:41;;;;;;;4.97;2.57;;;24.70;56.00;;;;;;5022105;28;20487;-77
2023/04/26 12:34:10;;;;;;;5.40;3.37;;;24.80;55.90;;;;;;5017058;28;20986;-80
2023/04/26 12:36:42;;;;;;;2.40;2.20;;;24.80;55.80;;;;;;5024754;28;20455;-78
2023/04/26 12:39:14;;;;;;;4.03;1.80;;;24.80;55.90;;;;;;5029181;28;20974;-79
2023/04/26 12:41:44;;;;;;;2.17;2.00;;;24.80;56.00;;;;;;5014703;28;20467;-79
2023/04/26 12:44:13;;;;;;;2.63;2.40;;;24.80;56.00;;;;;;5025323;28;20446;-78
2023/04/26 12:46:41;;;;;;;2.40;2.20;;;24.70;56.00;;;;;;5026962;28;20483;-78
2023/04/26 12:49:10;;;;;;;2.53;1.73;;;24.70;56.10;;;;;;5021135;28;20493;-77
2023/04/26 12:51:39;;;;;;;2.67;2.30;;;24.70;56.20;;;;;;5031098;28;20459;-73
2023/04/26 12:54:08;;;;;;;3.80;2.60;;;24.60;56.10;;;;;;5016713;28;20903;-72
2023/04/26 12:56:42;;;;;;;1.87;1.77;;;24.60;56.00;;;;;;5020132;28;20822;-72
2023/04/26 12:59:10;;;;;;;3.67;2.23;;;24.60;56.00;;;;;;5021151;28;21025;-73
2023/04/26 13:01:39;;;;;;;2.33;2.13;;;24.60;56.00;;;;;;5020832;28;20451;-80